sensor_id;sensor_type;location;lat;lon;timestamp;P1;durP1;ratioP1;P2;durP2;ratioP2
3054;SDS011;1537;52.018;8.542;2023-04-23T00:01:32;24.60;;;18.80;;
3054;SDS011;1537;52.018;8.542;2023-04-23T00:05:01;26.17;;;20.13;;
3054;SDS011;1537;52.018;8.542;2023-04-23T00:08:27;29.63;;;21.27;;
3054;SDS011;1537;52.018;8.542;2023-04-23T00:11:52;31.27;;;22.57;;
3054;SDS011;1537;52.018;8.542;2023-04-23T00:15:17;30.30;;;23.30;;
3054;SDS011;1537;52.018;8.542;2023-04-23T00:18:44;33.33;;;24.10;;
3054;SDS011;1537;52.018;8.542;2023-04-23T00:22:08;32.03;;;21.27;;
3054;SDS011;1537;52.018;8.542;2023-04-23T00:25:33;29.33;;;21.80;;
3054;SDS011;1537;52.018;8.542;2023-04-23T00:28:57;32.77;;;23.43;;
3054;SDS011;1537;52.018;8.542;2023-04-23T00:32:21;34.10;;;24.50;;
3054;SDS011;1537;52.018;8.542;2023-04-23T00:35:46;29.53;;;22.80;;
3054;SDS011;1537;52.018;8.542;2023-04-23T00:39:10;30.43;;;22.80;;
3054;SDS011;1537;52.018;8.542;2023-04-23T00:42:36;33.20;;;22.53;;
3054;SDS011;1537;52.018;8.542;2023-04-23T00:46:00;31.50;;;24.30;;
3054;SDS011;1537;52.018;8.542;2023-04-23T00:49:27;31.37;;;23.03;;
3054;SDS011;1537;52.018;8.542;2023-04-23T00:52:53;32.27;;;24.80;;
3054;SDS011;1537;52.018;8.542;2023-04-23T00:56:18;30.00;;;23.80;;
3054;SDS011;1537;52.018;8.542;2023-04-23T00:59:43;31.93;;;24.87;;
3054;SDS011;1537;52.018;8.542;2023-04-23T01:03:07;33.50;;;25.53;;
3054;SDS011;1537;52.018;8.542;2023-04-23T01:06:35;34.57;;;24.77;;
3054;SDS011;1537;52.018;8.542;2023-04-23T01:10:03;34.47;;;26.00;;
3054;SDS011;1537;52.018;8.542;2023-04-23T01:13:28;31.83;;;24.27;;
3054;SDS011;1537;52.018;8.542;2023-04-23T01:16:53;30.93;;;23.03;;
3054;SDS011;1537;52.018;8.542;2023-04-23T01:20:18;33.37;;;25.20;;
3054;SDS011;1537;52.018;8.542;2023-04-23T01:23:43;33.60;;;26.03;;
3054;SDS011;1537;52.018;8.542;2023-04-23T01:27:08;35.00;;;26.43;;
3054;SDS011;1537;52.018;8.542;2023-04-23T01:30:33;35.67;;;25.83;;
3054;SDS011;1537;52.018;8.542;2023-04-23T01:33:58;37.27;;;26.00;;
3054;SDS011;1537;52.018;8.542;2023-04-23T01:37:23;34.73;;;26.67;;
3054;SDS011;1537;52.018;8.542;2023-04-23T01:40:49;37.10;;;27.50;;
3054;SDS011;1537;52.018;8.542;2023-04-23T01:44:15;38.60;;;25.40;;
3054;SDS011;1537;52.018;8.542;2023-04-23T01:47:39;35.50;;;26.80;;
3054;SDS011;1537;52.018;8.542;2023-04-23T01:51:04;36.57;;;28.00;;
3054;SDS011;1537;52.018;8.542;2023-04-23T01:54:29;39.10;;;27.67;;
3054;SDS011;1537;52.018;8.542;2023-04-23T01:57:54;37.60;;;26.60;;
3054;SDS011;1537;52.018;8.542;2023-04-23T02:01:19;43.23;;;28.70;;
3054;SDS011;1537;52.018;8.542;2023-04-23T02:04:43;36.33;;;26.80;;
3054;SDS011;1537;52.018;8.542;2023-04-23T02:08:10;34.77;;;25.00;;
3054;SDS011;1537;52.018;8.542;2023-04-23T02:11:36;36.07;;;27.40;;
3054;SDS011;1537;52.018;8.542;2023-04-23T02:15:02;36.00;;;25.20;;
3054;SDS011;1537;52.018;8.542;2023-04-23T02:18:26;36.67;;;25.70;;
3054;SDS011;1537;52.018;8.542;2023-04-23T02:21:50;40.77;;;26.40;;
3054;SDS011;1537;52.018;8.542;2023-04-23T02:25:14;42.33;;;27.73;;
3054;SDS011;1537;52.018;8.542;2023-04-23T02:28:39;37.40;;;25.83;;
3054;SDS011;1537;52.018;8.542;2023-04-23T02:32:05;37.93;;;27.07;;
3054;SDS011;1537;52.018;8.542;2023-04-23T02:35:29;35.70;;;25.90;;
3054;SDS011;1537;52.018;8.542;2023-04-23T02:38:53;37.17;;;24.50;;
3054;SDS011;1537;52.018;8.542;2023-04-23T02:42:17;43.53;;;27.90;;
3054;SDS011;1537;52.018;8.542;2023-04-23T02:45:42;38.93;;;25.37;;
3054;SDS011;1537;52.018;8.542;2023-04-23T02:49:11;37.27;;;25.13;;
3054;SDS011;1537;52.018;8.542;2023-04-23T02:52:36;38.30;;;25.20;;
3054;SDS011;1537;52.018;8.542;2023-04-23T02:56:00;33.40;;;25.00;;
3054;SDS011;1537;52.018;8.542;2023-04-23T02:59:25;39.17;;;24.40;;
3054;SDS011;1537;52.018;8.542;2023-04-23T03:02:50;41.73;;;27.50;;
3054;SDS011;1537;52.018;8.542;2023-04-23T03:06:16;39.40;;;27.17;;
3054;SDS011;1537;52.018;8.542;2023-04-23T03:09:41;39.63;;;26.07;;
3054;SDS011;1537;52.018;8.542;2023-04-23T03:13:05;40.17;;;28.07;;
3054;SDS011;1537;52.018;8.542;2023-04-23T03:16:29;38.90;;;27.00;;
3054;SDS011;1537;52.018;8.542;2023-04-23T03:19:53;39.87;;;27.23;;
3054;SDS011;1537;52.018;8.542;2023-04-23T03:23:20;41.23;;;28.40;;
3054;SDS011;1537;52.018;8.542;2023-04-23T03:26:45;38.53;;;27.30;;
3054;SDS011;1537;52.018;8.542;2023-04-23T03:30:10;36.93;;;25.80;;
3054;SDS011;1537;52.018;8.542;2023-04-23T03:33:35;44.17;;;27.43;;
3054;SDS011;1537;52.018;8.542;2023-04-23T03:36:59;40.57;;;27.30;;
3054;SDS011;1537;52.018;8.542;2023-04-23T03:40:27;39.83;;;30.47;;
3054;SDS011;1537;52.018;8.542;2023-04-23T03:43:57;43.30;;;28.73;;
3054;SDS011;1537;52.018;8.542;2023-04-23T03:47:33;43.03;;;28.20;;
3054;SDS011;1537;52.018;8.542;2023-04-23T03:50:58;39.97;;;28.87;;
3054;SDS011;1537;52.018;8.542;2023-04-23T03:54:29;39.50;;;27.87;;
3054;SDS011;1537;52.018;8.542;2023-04-23T03:58:14;47.23;;;32.53;;
3054;SDS011;1537;52.018;8.542;2023-04-23T04:01:41;43.30;;;29.50;;
3054;SDS011;1537;52.018;8.542;2023-04-23T04:05:06;42.37;;;30.40;;
3054;SDS011;1537;52.018;8.542;2023-04-23T04:08:33;43.40;;;29.47;;
3054;SDS011;1537;52.018;8.542;2023-04-23T04:11:59;43.20;;;28.57;;
3054;SDS011;1537;52.018;8.542;2023-04-23T04:15:26;41.83;;;29.50;;
3054;SDS011;1537;52.018;8.542;2023-04-23T04:18:50;44.47;;;30.33;;
3054;SDS011;1537;52.018;8.542;2023-04-23T04:22:17;43.27;;;29.20;;
3054;SDS011;1537;52.018;8.542;2023-04-23T04:25:42;43.10;;;30.90;;
3054;SDS011;1537;52.018;8.542;2023-04-23T04:29:07;44.60;;;30.00;;
3054;SDS011;1537;52.018;8.542;2023-04-23T04:32:33;40.60;;;28.00;;
3054;SDS011;1537;52.018;8.542;2023-04-23T04:36:00;46.50;;;30.00;;
3054;SDS011;1537;52.018;8.542;2023-04-23T04:39:25;45.83;;;32.37;;
3054;SDS011;1537;52.018;8.542;2023-04-23T04:42:49;50.87;;;34.07;;
3054;SDS011;1537;52.018;8.542;2023-04-23T04:46:14;47.50;;;30.63;;
3054;SDS011;1537;52.018;8.542;2023-04-23T04:49:42;56.73;;;33.00;;
3054;SDS011;1537;52.018;8.542;2023-04-23T04:53:06;51.47;;;32.43;;
3054;SDS011;1537;52.018;8.542;2023-04-23T04:56:30;50.53;;;33.33;;
3054;SDS011;1537;52.018;8.542;2023-04-23T04:59:54;53.57;;;34.30;;
3054;SDS011;1537;52.018;8.542;2023-04-23T05:03:18;48.70;;;31.60;;
3054;SDS011;1537;52.018;8.542;2023-04-23T05:06:45;45.53;;;30.00;;
3054;SDS011;1537;52.018;8.542;2023-04-23T05:10:09;51.77;;;33.80;;
3054;SDS011;1537;52.018;8.542;2023-04-23T05:13:35;57.17;;;34.37;;
3054;SDS011;1537;52.018;8.542;2023-04-23T05:17:00;53.37;;;35.70;;
3054;SDS011;1537;52.018;8.542;2023-04-23T05:20:24;53.33;;;36.40;;
3054;SDS011;1537;52.018;8.542;2023-04-23T05:23:51;63.93;;;37.23;;
3054;SDS011;1537;52.018;8.542;2023-04-23T05:27:15;57.60;;;35.80;;
3054;SDS011;1537;52.018;8.542;2023-04-23T05:30:39;56.70;;;35.70;;
3054;SDS011;1537;52.018;8.542;2023-04-23T05:34:03;59.70;;;38.03;;
3054;SDS011;1537;52.018;8.542;2023-04-23T05:37:30;56.00;;;35.73;;
3054;SDS011;1537;52.018;8.542;2023-04-23T05:40:56;53.97;;;36.80;;
3054;SDS011;1537;52.018;8.542;2023-04-23T05:44:20;61.23;;;36.00;;
3054;SDS011;1537;52.018;8.542;2023-04-23T05:47:44;50.50;;;31.50;;
3054;SDS011;1537;52.018;8.542;2023-04-23T05:51:09;55.47;;;36.03;;
3054;SDS011;1537;52.018;8.542;2023-04-23T05:54:33;52.70;;;32.30;;
3054;SDS011;1537;52.018;8.542;2023-04-23T05:57:59;57.87;;;36.00;;
3054;SDS011;1537;52.018;8.542;2023-04-23T06:01:23;54.50;;;35.50;;
3054;SDS011;1537;52.018;8.542;2023-04-23T06:04:47;47.40;;;32.97;;
3054;SDS011;1537;52.018;8.542;2023-04-23T06:08:12;49.30;;;30.67;;
3054;SDS011;1537;52.018;8.542;2023-04-23T06:11:36;49.53;;;31.87;;
3054;SDS011;1537;52.018;8.542;2023-04-23T06:15:02;42.60;;;30.03;;
3054;SDS011;1537;52.018;8.542;2023-04-23T06:18:27;42.20;;;29.50;;
3054;SDS011;1537;52.018;8.542;2023-04-23T06:21:52;37.23;;;27.20;;
3054;SDS011;1537;52.018;8.542;2023-04-23T06:25:17;33.07;;;23.73;;
3054;SDS011;1537;52.018;8.542;2023-04-23T06:28:42;28.13;;;21.13;;
3054;SDS011;1537;52.018;8.542;2023-04-23T06:32:24;28.77;;;21.33;;
3054;SDS011;1537;52.018;8.542;2023-04-23T06:35:48;24.63;;;20.77;;
3054;SDS011;1537;52.018;8.542;2023-04-23T06:39:12;27.00;;;20.50;;
3054;SDS011;1537;52.018;8.542;2023-04-23T06:42:36;27.53;;;20.60;;
3054;SDS011;1537;52.018;8.542;2023-04-23T06:46:20;29.10;;;21.27;;
3054;SDS011;1537;52.018;8.542;2023-04-23T06:49:46;24.10;;;20.23;;
3054;SDS011;1537;52.018;8.542;2023-04-23T06:53:10;23.50;;;19.30;;
3054;SDS011;1537;52.018;8.542;2023-04-23T06:56:34;21.33;;;17.80;;
3054;SDS011;1537;52.018;8.542;2023-04-23T06:59:58;22.97;;;19.23;;
3054;SDS011;1537;52.018;8.542;2023-04-23T07:03:30;21.00;;;18.53;;
3054;SDS011;1537;52.018;8.542;2023-04-23T07:06:55;22.27;;;18.30;;
3054;SDS011;1537;52.018;8.542;2023-04-23T07:10:19;18.17;;;16.30;;
3054;SDS011;1537;52.018;8.542;2023-04-23T07:13:43;19.23;;;17.23;;
3054;SDS011;1537;52.018;8.542;2023-04-23T07:17:08;21.27;;;17.20;;
3054;SDS011;1537;52.018;8.542;2023-04-23T07:20:33;16.43;;;14.73;;
3054;SDS011;1537;52.018;8.542;2023-04-23T07:24:04;19.53;;;17.43;;
3054;SDS011;1537;52.018;8.542;2023-04-23T07:27:31;18.90;;;15.10;;
3054;SDS011;1537;52.018;8.542;2023-04-23T07:30:55;17.00;;;15.30;;
3054;SDS011;1537;52.018;8.542;2023-04-23T07:34:18;17.00;;;15.30;;
3054;SDS011;1537;52.018;8.542;2023-04-23T07:37:42;17.00;;;14.30;;
3054;SDS011;1537;52.018;8.542;2023-04-23T07:41:08;14.73;;;13.17;;
3054;SDS011;1537;52.018;8.542;2023-04-23T07:44:32;14.33;;;12.83;;
3054;SDS011;1537;52.018;8.542;2023-04-23T07:47:55;14.83;;;13.03;;
3054;SDS011;1537;52.018;8.542;2023-04-23T07:51:20;14.50;;;12.57;;
3054;SDS011;1537;52.018;8.542;2023-04-23T07:54:47;16.43;;;14.60;;
3054;SDS011;1537;52.018;8.542;2023-04-23T07:58:12;14.23;;;12.70;;
3054;SDS011;1537;52.018;8.542;2023-04-23T08:01:36;13.93;;;11.50;;
3054;SDS011;1537;52.018;8.542;2023-04-23T08:05:01;12.80;;;11.30;;
3054;SDS011;1537;52.018;8.542;2023-04-23T08:08:25;12.60;;;10.57;;
3054;SDS011;1537;52.018;8.542;2023-04-23T08:11:49;14.97;;;13.47;;
3054;SDS011;1537;52.018;8.542;2023-04-23T08:15:14;18.40;;;13.87;;
3054;SDS011;1537;52.018;8.542;2023-04-23T08:18:39;15.43;;;13.80;;
3054;SDS011;1537;52.018;8.542;2023-04-23T08:22:04;16.53;;;14.73;;
3054;SDS011;1537;52.018;8.542;2023-04-23T08:25:27;16.43;;;14.67;;
3054;SDS011;1537;52.018;8.542;2023-04-23T08:28:52;18.73;;;16.80;;
3054;SDS011;1537;52.018;8.542;2023-04-23T08:32:17;18.40;;;16.60;;
3054;SDS011;1537;52.018;8.542;2023-04-23T08:35:41;18.53;;;16.67;;
3054;SDS011;1537;52.018;8.542;2023-04-23T08:39:05;17.40;;;15.70;;
3054;SDS011;1537;52.018;8.542;2023-04-23T08:42:29;17.83;;;14.70;;
3054;SDS011;1537;52.018;8.542;2023-04-23T08:46:01;17.10;;;15.40;;
3054;SDS011;1537;52.018;8.542;2023-04-23T08:49:27;19.60;;;17.40;;
3054;SDS011;1537;52.018;8.542;2023-04-23T08:52:56;19.33;;;17.40;;
3054;SDS011;1537;52.018;8.542;2023-04-23T08:56:20;18.47;;;15.10;;
3054;SDS011;1537;52.018;8.542;2023-04-23T08:59:45;16.83;;;15.00;;
3054;SDS011;1537;52.018;8.542;2023-04-23T09:03:14;18.17;;;16.37;;
3054;SDS011;1537;52.018;8.542;2023-04-23T09:06:41;14.20;;;12.37;;
3054;SDS011;1537;52.018;8.542;2023-04-23T09:10:06;13.53;;;12.17;;
3054;SDS011;1537;52.018;8.542;2023-04-23T09:13:32;12.53;;;11.23;;
3054;SDS011;1537;52.018;8.542;2023-04-23T09:16:57;13.73;;;12.33;;
3054;SDS011;1537;52.018;8.542;2023-04-23T09:20:21;13.70;;;12.40;;
3054;SDS011;1537;52.018;8.542;2023-04-23T09:23:46;12.23;;;11.03;;
3054;SDS011;1537;52.018;8.542;2023-04-23T09:27:12;12.83;;;11.53;;
3054;SDS011;1537;52.018;8.542;2023-04-23T09:30:47;12.53;;;11.23;;
3054;SDS011;1537;52.018;8.542;2023-04-23T09:34:11;10.90;;;9.90;;
3054;SDS011;1537;52.018;8.542;2023-04-23T09:37:37;10.93;;;9.30;;
3054;SDS011;1537;52.018;8.542;2023-04-23T09:44:56;10.87;;;9.77;;
3054;SDS011;1537;52.018;8.542;2023-04-23T09:48:21;11.10;;;9.87;;
3054;SDS011;1537;52.018;8.542;2023-04-23T09:51:47;13.30;;;11.10;;
3054;SDS011;1537;52.018;8.542;2023-04-23T09:55:11;11.33;;;10.33;;
3054;SDS011;1537;52.018;8.542;2023-04-23T09:58:34;10.67;;;9.57;;
3054;SDS011;1537;52.018;8.542;2023-04-23T10:02:02;10.60;;;9.50;;
3054;SDS011;1537;52.018;8.542;2023-04-23T10:05:29;10.23;;;9.23;;
3054;SDS011;1537;52.018;8.542;2023-04-23T10:09:13;9.63;;;8.73;;
3054;SDS011;1537;52.018;8.542;2023-04-23T10:12:37;10.97;;;9.10;;
3054;SDS011;1537;52.018;8.542;2023-04-23T10:16:15;10.80;;;9.70;;
3054;SDS011;1537;52.018;8.542;2023-04-23T10:19:50;10.10;;;9.07;;
3054;SDS011;1537;52.018;8.542;2023-04-23T10:23:14;11.53;;;8.70;;
3054;SDS011;1537;52.018;8.542;2023-04-23T10:26:41;8.40;;;7.00;;
3054;SDS011;1537;52.018;8.542;2023-04-23T10:30:06;10.13;;;7.83;;
3054;SDS011;1537;52.018;8.542;2023-04-23T10:33:31;8.97;;;7.33;;
3054;SDS011;1537;52.018;8.542;2023-04-23T10:37:18;8.87;;;7.93;;
3054;SDS011;1537;52.018;8.542;2023-04-23T10:40:42;7.70;;;6.80;;
3054;SDS011;1537;52.018;8.542;2023-04-23T10:44:10;8.20;;;7.37;;
3054;SDS011;1537;52.018;8.542;2023-04-23T10:47:37;13.40;;;7.53;;
3054;SDS011;1537;52.018;8.542;2023-04-23T10:51:04;9.17;;;7.20;;
3054;SDS011;1537;52.018;8.542;2023-04-23T10:54:56;8.27;;;7.20;;
3054;SDS011;1537;52.018;8.542;2023-04-23T10:58:25;8.80;;;7.63;;
3054;SDS011;1537;52.018;8.542;2023-04-23T11:02:13;8.80;;;7.00;;
3054;SDS011;1537;52.018;8.542;2023-04-23T11:05:37;7.27;;;6.20;;
3054;SDS011;1537;52.018;8.542;2023-04-23T11:09:01;7.90;;;5.80;;
3054;SDS011;1537;52.018;8.542;2023-04-23T11:12:54;9.03;;;5.70;;
3054;SDS011;1537;52.018;8.542;2023-04-23T11:16:19;8.30;;;5.20;;
3054;SDS011;1537;52.018;8.542;2023-04-23T11:23:32;7.60;;;6.53;;
3054;SDS011;1537;52.018;8.542;2023-04-23T11:26:56;10.30;;;6.57;;
3054;SDS011;1537;52.018;8.542;2023-04-23T11:30:21;7.73;;;5.93;;
3054;SDS011;1537;52.018;8.542;2023-04-23T11:33:46;7.40;;;6.60;;
3054;SDS011;1537;52.018;8.542;2023-04-23T11:37:10;7.00;;;5.30;;
3054;SDS011;1537;52.018;8.542;2023-04-23T11:40:34;10.43;;;5.10;;
3054;SDS011;1537;52.018;8.542;2023-04-23T11:44:01;7.60;;;4.53;;
3054;SDS011;1537;52.018;8.542;2023-04-23T11:47:27;8.90;;;5.23;;
3054;SDS011;1537;52.018;8.542;2023-04-23T11:50:53;7.17;;;5.00;;
3054;SDS011;1537;52.018;8.542;2023-04-23T11:54:17;7.50;;;5.20;;
3054;SDS011;1537;52.018;8.542;2023-04-23T11:57:41;6.27;;;4.47;;
3054;SDS011;1537;52.018;8.542;2023-04-23T12:01:05;8.20;;;4.63;;
3054;SDS011;1537;52.018;8.542;2023-04-23T12:04:31;7.27;;;4.80;;
3054;SDS011;1537;52.018;8.542;2023-04-23T12:08:05;9.70;;;4.37;;
3054;SDS011;1537;52.018;8.542;2023-04-23T12:11:31;6.87;;;4.60;;
3054;SDS011;1537;52.018;8.542;2023-04-23T12:15:01;5.93;;;4.17;;
3054;SDS011;1537;52.018;8.542;2023-04-23T12:18:26;7.93;;;4.20;;
3054;SDS011;1537;52.018;8.542;2023-04-23T12:21:52;5.97;;;3.97;;
3054;SDS011;1537;52.018;8.542;2023-04-23T12:25:20;5.50;;;3.80;;
3054;SDS011;1537;52.018;8.542;2023-04-23T12:28:45;7.20;;;4.33;;
3054;SDS011;1537;52.018;8.542;2023-04-23T12:32:10;7.40;;;4.53;;
3054;SDS011;1537;52.018;8.542;2023-04-23T12:35:37;5.53;;;3.90;;
3054;SDS011;1537;52.018;8.542;2023-04-23T12:39:19;7.83;;;4.80;;
3054;SDS011;1537;52.018;8.542;2023-04-23T12:42:44;6.00;;;4.53;;
3054;SDS011;1537;52.018;8.542;2023-04-23T12:46:07;5.03;;;3.80;;
3054;SDS011;1537;52.018;8.542;2023-04-23T12:49:32;5.57;;;4.27;;
3054;SDS011;1537;52.018;8.542;2023-04-23T12:52:56;6.90;;;4.40;;
3054;SDS011;1537;52.018;8.542;2023-04-23T12:56:21;6.60;;;4.00;;
3054;SDS011;1537;52.018;8.542;2023-04-23T12:59:45;6.40;;;4.07;;
3054;SDS011;1537;52.018;8.542;2023-04-23T13:03:09;7.43;;;4.00;;
3054;SDS011;1537;52.018;8.542;2023-04-23T13:06:35;7.63;;;4.00;;
3054;SDS011;1537;52.018;8.542;2023-04-23T13:09:59;5.50;;;3.70;;
3054;SDS011;1537;52.018;8.542;2023-04-23T13:13:24;5.60;;;3.87;;
3054;SDS011;1537;52.018;8.542;2023-04-23T13:16:48;10.70;;;4.87;;
3054;SDS011;1537;52.018;8.542;2023-04-23T13:20:13;5.67;;;4.03;;
3054;SDS011;1537;52.018;8.542;2023-04-23T13:23:38;5.80;;;3.80;;
3054;SDS011;1537;52.018;8.542;2023-04-23T13:27:02;7.53;;;3.80;;
3054;SDS011;1537;52.018;8.542;2023-04-23T13:30:27;6.30;;;4.00;;
3054;SDS011;1537;52.018;8.542;2023-04-23T13:33:51;6.33;;;3.73;;
3054;SDS011;1537;52.018;8.542;2023-04-23T13:37:15;5.43;;;3.50;;
3054;SDS011;1537;52.018;8.542;2023-04-23T13:40:39;5.87;;;3.87;;
3054;SDS011;1537;52.018;8.542;2023-04-23T13:44:03;5.53;;;3.70;;
3054;SDS011;1537;52.018;8.542;2023-04-23T13:47:33;4.90;;;3.43;;
3054;SDS011;1537;52.018;8.542;2023-04-23T13:50:58;6.50;;;3.70;;
3054;SDS011;1537;52.018;8.542;2023-04-23T13:54:23;4.73;;;3.40;;
3054;SDS011;1537;52.018;8.542;2023-04-23T13:57:48;4.80;;;3.17;;
3054;SDS011;1537;52.018;8.542;2023-04-23T14:01:18;4.90;;;3.50;;
3054;SDS011;1537;52.018;8.542;2023-04-23T14:04:46;4.63;;;3.20;;
3054;SDS011;1537;52.018;8.542;2023-04-23T14:08:13;8.03;;;3.80;;
3054;SDS011;1537;52.018;8.542;2023-04-23T14:11:37;4.70;;;3.30;;
3054;SDS011;1537;52.018;8.542;2023-04-23T14:15:02;6.80;;;3.90;;
3054;SDS011;1537;52.018;8.542;2023-04-23T14:18:27;5.90;;;3.60;;
3054;SDS011;1537;52.018;8.542;2023-04-23T14:21:52;6.33;;;4.00;;
3054;SDS011;1537;52.018;8.542;2023-04-23T14:25:22;5.50;;;3.83;;
3054;SDS011;1537;52.018;8.542;2023-04-23T14:28:47;5.60;;;3.90;;
3054;SDS011;1537;52.018;8.542;2023-04-23T14:32:14;5.77;;;3.77;;
3054;SDS011;1537;52.018;8.542;2023-04-23T14:35:38;6.70;;;3.53;;
3054;SDS011;1537;52.018;8.542;2023-04-23T14:39:06;5.07;;;3.13;;
3054;SDS011;1537;52.018;8.542;2023-04-23T14:42:29;5.63;;;3.10;;
3054;SDS011;1537;52.018;8.542;2023-04-23T14:45:53;4.80;;;3.20;;
3054;SDS011;1537;52.018;8.542;2023-04-23T14:49:17;5.90;;;3.10;;
3054;SDS011;1537;52.018;8.542;2023-04-23T14:52:42;6.20;;;3.43;;
3054;SDS011;1537;52.018;8.542;2023-04-23T14:56:11;7.00;;;3.03;;
3054;SDS011;1537;52.018;8.542;2023-04-23T14:59:35;7.43;;;3.23;;
3054;SDS011;1537;52.018;8.542;2023-04-23T15:02:59;5.50;;;3.17;;
3054;SDS011;1537;52.018;8.542;2023-04-23T15:06:24;8.50;;;3.33;;
3054;SDS011;1537;52.018;8.542;2023-04-23T15:09:48;5.37;;;3.07;;
3054;SDS011;1537;52.018;8.542;2023-04-23T15:13:30;6.83;;;3.23;;
3054;SDS011;1537;52.018;8.542;2023-04-23T15:17:00;6.00;;;3.70;;
3054;SDS011;1537;52.018;8.542;2023-04-23T15:20:24;5.13;;;3.10;;
3054;SDS011;1537;52.018;8.542;2023-04-23T15:23:48;5.53;;;3.30;;
3054;SDS011;1537;52.018;8.542;2023-04-23T15:27:12;5.67;;;3.40;;
3054;SDS011;1537;52.018;8.542;2023-04-23T15:30:38;5.93;;;3.60;;
3054;SDS011;1537;52.018;8.542;2023-04-23T15:34:02;6.30;;;3.50;;
3054;SDS011;1537;52.018;8.542;2023-04-23T15:37:28;6.83;;;4.53;;
3054;SDS011;1537;52.018;8.542;2023-04-23T15:40:52;6.00;;;4.23;;
3054;SDS011;1537;52.018;8.542;2023-04-23T15:44:18;5.10;;;3.70;;
3054;SDS011;1537;52.018;8.542;2023-04-23T15:47:43;6.77;;;6.07;;
3054;SDS011;1537;52.018;8.542;2023-04-23T15:51:07;5.33;;;4.83;;
3054;SDS011;1537;52.018;8.542;2023-04-23T15:54:30;6.53;;;4.63;;
3054;SDS011;1537;52.018;8.542;2023-04-23T15:57:54;5.70;;;5.10;;
3054;SDS011;1537;52.018;8.542;2023-04-23T16:01:19;5.30;;;3.63;;
3054;SDS011;1537;52.018;8.542;2023-04-23T16:04:48;7.20;;;4.63;;
3054;SDS011;1537;52.018;8.542;2023-04-23T16:08:12;6.10;;;4.30;;
3054;SDS011;1537;52.018;8.542;2023-04-23T16:11:37;6.23;;;4.10;;
3054;SDS011;1537;52.018;8.542;2023-04-23T16:15:01;6.40;;;3.80;;
3054;SDS011;1537;52.018;8.542;2023-04-23T16:18:25;8.20;;;4.50;;
3054;SDS011;1537;52.018;8.542;2023-04-23T16:21:50;8.23;;;4.10;;
3054;SDS011;1537;52.018;8.542;2023-04-23T16:25:14;7.40;;;4.40;;
3054;SDS011;1537;52.018;8.542;2023-04-23T16:28:38;4.97;;;3.43;;
3054;SDS011;1537;52.018;8.542;2023-04-23T16:32:02;6.40;;;3.80;;
3054;SDS011;1537;52.018;8.542;2023-04-23T16:35:25;8.20;;;4.63;;
3054;SDS011;1537;52.018;8.542;2023-04-23T16:38:50;12.73;;;3.97;;
3054;SDS011;1537;52.018;8.542;2023-04-23T16:42:14;5.67;;;4.10;;
3054;SDS011;1537;52.018;8.542;2023-04-23T16:45:38;5.80;;;3.80;;
3054;SDS011;1537;52.018;8.542;2023-04-23T16:49:02;5.70;;;4.10;;
3054;SDS011;1537;52.018;8.542;2023-04-23T16:52:25;7.67;;;4.20;;
3054;SDS011;1537;52.018;8.542;2023-04-23T16:55:51;5.60;;;4.40;;
3054;SDS011;1537;52.018;8.542;2023-04-23T16:59:14;8.20;;;3.57;;
3054;SDS011;1537;52.018;8.542;2023-04-23T17:02:38;6.70;;;4.20;;
3054;SDS011;1537;52.018;8.542;2023-04-23T17:06:07;10.30;;;4.60;;
3054;SDS011;1537;52.018;8.542;2023-04-23T17:09:32;5.97;;;4.27;;
3054;SDS011;1537;52.018;8.542;2023-04-23T17:12:58;11.53;;;4.80;;
3054;SDS011;1537;52.018;8.542;2023-04-23T17:16:21;6.20;;;4.97;;
3054;SDS011;1537;52.018;8.542;2023-04-23T17:19:48;6.67;;;4.20;;
3054;SDS011;1537;52.018;8.542;2023-04-23T17:23:12;5.00;;;3.60;;
3054;SDS011;1537;52.018;8.542;2023-04-23T17:26:36;6.20;;;3.40;;
3054;SDS011;1537;52.018;8.542;2023-04-23T17:30:03;5.03;;;3.50;;
3054;SDS011;1537;52.018;8.542;2023-04-23T17:33:28;6.40;;;3.67;;
3054;SDS011;1537;52.018;8.542;2023-04-23T17:36:52;6.33;;;3.90;;
3054;SDS011;1537;52.018;8.542;2023-04-23T17:40:16;5.57;;;4.10;;
3054;SDS011;1537;52.018;8.542;2023-04-23T17:43:40;5.90;;;4.00;;
3054;SDS011;1537;52.018;8.542;2023-04-23T17:47:05;6.27;;;3.70;;
3054;SDS011;1537;52.018;8.542;2023-04-23T17:50:31;5.40;;;3.47;;
3054;SDS011;1537;52.018;8.542;2023-04-23T17:53:54;7.80;;;3.93;;
3054;SDS011;1537;52.018;8.542;2023-04-23T17:57:18;5.80;;;4.33;;
3054;SDS011;1537;52.018;8.542;2023-04-23T18:00:42;6.03;;;3.90;;
3054;SDS011;1537;52.018;8.542;2023-04-23T18:04:07;5.40;;;3.80;;
3054;SDS011;1537;52.018;8.542;2023-04-23T18:07:31;5.03;;;3.70;;
3054;SDS011;1537;52.018;8.542;2023-04-23T18:10:55;6.30;;;4.30;;
3054;SDS011;1537;52.018;8.542;2023-04-23T18:14:18;6.87;;;4.50;;
3054;SDS011;1537;52.018;8.542;2023-04-23T18:17:42;6.87;;;4.87;;
3054;SDS011;1537;52.018;8.542;2023-04-23T18:21:07;9.40;;;4.87;;
3054;SDS011;1537;52.018;8.542;2023-04-23T18:24:31;8.30;;;4.67;;
3054;SDS011;1537;52.018;8.542;2023-04-23T18:27:55;6.03;;;3.90;;
3054;SDS011;1537;52.018;8.542;2023-04-23T18:31:18;5.97;;;4.17;;
3054;SDS011;1537;52.018;8.542;2023-04-23T18:34:42;7.20;;;4.73;;
3054;SDS011;1537;52.018;8.542;2023-04-23T18:38:23;9.00;;;4.63;;
3054;SDS011;1537;52.018;8.542;2023-04-23T18:41:47;5.87;;;4.03;;
3054;SDS011;1537;52.018;8.542;2023-04-23T18:45:11;6.00;;;4.23;;
3054;SDS011;1537;52.018;8.542;2023-04-23T18:48:39;6.77;;;4.90;;
3054;SDS011;1537;52.018;8.542;2023-04-23T18:52:08;6.30;;;4.60;;
3054;SDS011;1537;52.018;8.542;2023-04-23T18:55:33;6.10;;;4.43;;
3054;SDS011;1537;52.018;8.542;2023-04-23T18:58:57;6.00;;;4.80;;
3054;SDS011;1537;52.018;8.542;2023-04-23T19:02:21;5.93;;;4.40;;
3054;SDS011;1537;52.018;8.542;2023-04-23T19:05:56;6.77;;;5.20;;
3054;SDS011;1537;52.018;8.542;2023-04-23T19:09:20;7.50;;;4.93;;
3054;SDS011;1537;52.018;8.542;2023-04-23T19:12:45;10.13;;;6.13;;
3054;SDS011;1537;52.018;8.542;2023-04-23T19:16:09;12.40;;;6.50;;
3054;SDS011;1537;52.018;8.542;2023-04-23T19:19:33;8.57;;;4.43;;
3054;SDS011;1537;52.018;8.542;2023-04-23T19:22:56;8.67;;;4.67;;
3054;SDS011;1537;52.018;8.542;2023-04-23T19:26:20;7.77;;;4.30;;
3054;SDS011;1537;52.018;8.542;2023-04-23T19:29:45;10.60;;;5.10;;
3054;SDS011;1537;52.018;8.542;2023-04-23T19:33:10;6.70;;;3.63;;
3054;SDS011;1537;52.018;8.542;2023-04-23T19:36:33;7.23;;;3.80;;
3054;SDS011;1537;52.018;8.542;2023-04-23T19:39:57;7.30;;;3.97;;
3054;SDS011;1537;52.018;8.542;2023-04-23T19:43:21;8.83;;;3.93;;
3054;SDS011;1537;52.018;8.542;2023-04-23T19:46:46;7.20;;;3.70;;
3054;SDS011;1537;52.018;8.542;2023-04-23T19:50:10;6.17;;;3.23;;
3054;SDS011;1537;52.018;8.542;2023-04-23T19:53:34;5.97;;;3.10;;
3054;SDS011;1537;52.018;8.542;2023-04-23T19:56:58;6.50;;;2.70;;
3054;SDS011;1537;52.018;8.542;2023-04-23T20:00:23;5.97;;;2.73;;
3054;SDS011;1537;52.018;8.542;2023-04-23T20:03:49;6.03;;;2.17;;
3054;SDS011;1537;52.018;8.542;2023-04-23T20:07:14;5.90;;;2.37;;
3054;SDS011;1537;52.018;8.542;2023-04-23T20:10:38;4.50;;;2.13;;
3054;SDS011;1537;52.018;8.542;2023-04-23T20:14:04;4.70;;;2.27;;
3054;SDS011;1537;52.018;8.542;2023-04-23T20:17:28;4.33;;;2.20;;
3054;SDS011;1537;52.018;8.542;2023-04-23T20:20:53;5.80;;;2.10;;
3054;SDS011;1537;52.018;8.542;2023-04-23T20:24:17;5.13;;;2.23;;
3054;SDS011;1537;52.018;8.542;2023-04-23T20:27:42;5.87;;;2.30;;
3054;SDS011;1537;52.018;8.542;2023-04-23T20:31:06;4.50;;;2.30;;
3054;SDS011;1537;52.018;8.542;2023-04-23T20:34:30;4.07;;;2.00;;
3054;SDS011;1537;52.018;8.542;2023-04-23T20:37:55;5.07;;;2.57;;
3054;SDS011;1537;52.018;8.542;2023-04-23T20:41:19;3.83;;;1.80;;
3054;SDS011;1537;52.018;8.542;2023-04-23T20:44:43;4.30;;;2.40;;
3054;SDS011;1537;52.018;8.542;2023-04-23T20:48:08;3.90;;;2.20;;
3054;SDS011;1537;52.018;8.542;2023-04-23T20:51:31;3.70;;;1.80;;
3054;SDS011;1537;52.018;8.542;2023-04-23T20:54:57;4.67;;;2.70;;
3054;SDS011;1537;52.018;8.542;2023-04-23T20:58:21;3.87;;;2.40;;
3054;SDS011;1537;52.018;8.542;2023-04-23T21:01:44;5.00;;;2.80;;
3054;SDS011;1537;52.018;8.542;2023-04-23T21:05:12;5.10;;;3.37;;
3054;SDS011;1537;52.018;8.542;2023-04-23T21:08:35;4.40;;;2.77;;